sensor_id;sensor_type;location;lat;lon;timestamp;temperature;humidity
28087;DHT22;15392;48.912;8.380;2023-03-14T00:00:07;17.90;48.40
28087;DHT22;15392;48.912;8.380;2023-03-14T00:02:36;17.90;48.40
28087;DHT22;15392;48.912;8.380;2023-03-14T00:05:02;17.90;48.40
28087;DHT22;15392;48.912;8.380;2023-03-14T00:07:36;17.90;48.40
28087;DHT22;15392;48.912;8.380;2023-03-14T00:10:09;17.90;48.50
28087;DHT22;15392;48.912;8.380;2023-03-14T00:12:36;17.90;48.50
28087;DHT22;15392;48.912;8.380;2023-03-14T00:15:02;17.90;48.60
28087;DHT22;15392;48.912;8.380;2023-03-14T00:17:30;17.90;48.50
28087;DHT22;15392;48.912;8.380;2023-03-14T00:19:59;18.00;48.60
28087;DHT22;15392;48.912;8.380;2023-03-14T00:22:36;18.00;48.50
28087;DHT22;15392;48.912;8.380;2023-03-14T00:25:04;18.00;48.50
28087;DHT22;15392;48.912;8.380;2023-03-14T00:27:33;18.00;48.50
28087;DHT22;15392;48.912;8.380;2023-03-14T00:30:00;18.00;48.40
28087;DHT22;15392;48.912;8.380;2023-03-14T00:32:26;18.00;48.40
28087;DHT22;15392;48.912;8.380;2023-03-14T00:34:52;18.00;48.40
28087;DHT22;15392;48.912;8.380;2023-03-14T00:37:18;18.00;48.40
28087;DHT22;15392;48.912;8.380;2023-03-14T00:39:44;18.00;48.30
28087;DHT22;15392;48.912;8.380;2023-03-14T00:42:10;18.00;48.30
28087;DHT22;15392;48.912;8.380;2023-03-14T00:44:39;18.00;48.30
28087;DHT22;15392;48.912;8.380;2023-03-14T00:47:04;18.00;48.30
28087;DHT22;15392;48.912;8.380;2023-03-14T00:49:30;18.00;48.30
28087;DHT22;15392;48.912;8.380;2023-03-14T00:51:56;18.00;48.30
28087;DHT22;15392;48.912;8.380;2023-03-14T00:54:22;18.10;48.40
28087;DHT22;15392;48.912;8.380;2023-03-14T00:56:48;18.00;48.30
28087;DHT22;15392;48.912;8.380;2023-03-14T00:59:15;18.10;48.30
28087;DHT22;15392;48.912;8.380;2023-03-14T01:01:44;18.00;48.30
28087;DHT22;15392;48.912;8.380;2023-03-14T01:04:10;18.00;48.30
28087;DHT22;15392;48.912;8.380;2023-03-14T01:06:36;18.00;48.40
28087;DHT22;15392;48.912;8.380;2023-03-14T01:09:02;18.00;48.40
28087;DHT22;15392;48.912;8.380;2023-03-14T01:11:31;18.00;48.40
28087;DHT22;15392;48.912;8.380;2023-03-14T01:13:58;18.00;48.30
28087;DHT22;15392;48.912;8.380;2023-03-14T01:16:27;18.00;48.30
28087;DHT22;15392;48.912;8.380;2023-03-14T01:18:54;18.00;48.40
28087;DHT22;15392;48.912;8.380;2023-03-14T01:21:28;18.00;48.40
28087;DHT22;15392;48.912;8.380;2023-03-14T01:23:56;18.00;48.30
28087;DHT22;15392;48.912;8.380;2023-03-14T01:26:24;17.90;48.30
28087;DHT22;15392;48.912;8.380;2023-03-14T01:28:53;18.00;48.40
28087;DHT22;15392;48.912;8.380;2023-03-14T01:31:19;18.00;48.50
28087;DHT22;15392;48.912;8.380;2023-03-14T01:33:45;18.00;48.50
28087;DHT22;15392;48.912;8.380;2023-03-14T01:36:12;18.00;48.50
28087;DHT22;15392;48.912;8.380;2023-03-14T01:38:39;17.90;48.50
28087;DHT22;15392;48.912;8.380;2023-03-14T01:41:12;17.90;48.60
28087;DHT22;15392;48.912;8.380;2023-03-14T01:43:39;17.90;48.60
28087;DHT22;15392;48.912;8.380;2023-03-14T01:48:38;17.90;48.50
28087;DHT22;15392;48.912;8.380;2023-03-14T01:51:11;17.80;48.50
28087;DHT22;15392;48.912;8.380;2023-03-14T01:53:40;17.80;48.50
28087;DHT22;15392;48.912;8.380;2023-03-14T01:56:11;17.80;48.60
28087;DHT22;15392;48.912;8.380;2023-03-14T01:58:40;17.80;48.60
28087;DHT22;15392;48.912;8.380;2023-03-14T02:01:09;17.80;48.60
28087;DHT22;15392;48.912;8.380;2023-03-14T02:03:41;17.80;48.60
28087;DHT22;15392;48.912;8.380;2023-03-14T02:06:12;17.80;48.60
28087;DHT22;15392;48.912;8.380;2023-03-14T02:08:40;17.70;49.10
28087;DHT22;15392;48.912;8.380;2023-03-14T02:11:09;17.70;48.50
28087;DHT22;15392;48.912;8.380;2023-03-14T02:13:35;17.70;48.50
28087;DHT22;15392;48.912;8.380;2023-03-14T02:16:00;17.70;48.50
28087;DHT22;15392;48.912;8.380;2023-03-14T02:18:26;17.60;48.50
28087;DHT22;15392;48.912;8.380;2023-03-14T02:21:18;17.60;48.60
28087;DHT22;15392;48.912;8.380;2023-03-14T02:24:00;17.60;48.70
28087;DHT22;15392;48.912;8.380;2023-03-14T02:29:09;17.60;48.70
28087;DHT22;15392;48.912;8.380;2023-03-14T02:31:35;17.60;49.30
28087;DHT22;15392;48.912;8.380;2023-03-14T02:34:02;17.60;48.70
28087;DHT22;15392;48.912;8.380;2023-03-14T02:36:29;17.50;48.60
28087;DHT22;15392;48.912;8.380;2023-03-14T02:40:01;17.50;48.60
28087;DHT22;15392;48.912;8.380;2023-03-14T02:42:05;17.50;48.60
28087;DHT22;15392;48.912;8.380;2023-03-14T02:44:31;17.50;48.70
28087;DHT22;15392;48.912;8.380;2023-03-14T02:46:57;17.50;48.60
28087;DHT22;15392;48.912;8.380;2023-03-14T02:49:23;17.40;48.50
28087;DHT22;15392;48.912;8.380;2023-03-14T02:51:51;17.40;48.50
28087;DHT22;15392;48.912;8.380;2023-03-14T02:54:18;17.40;48.50
28087;DHT22;15392;48.912;8.380;2023-03-14T02:56:45;17.40;48.50
28087;DHT22;15392;48.912;8.380;2023-03-14T02:59:11;17.40;48.40
28087;DHT22;15392;48.912;8.380;2023-03-14T03:01:37;17.40;48.40
28087;DHT22;15392;48.912;8.380;2023-03-14T03:04:03;17.40;48.40
28087;DHT22;15392;48.912;8.380;2023-03-14T03:06:29;17.40;48.40
28087;DHT22;15392;48.912;8.380;2023-03-14T03:08:54;17.30;48.30
28087;DHT22;15392;48.912;8.380;2023-03-14T03:11:20;17.30;48.40
28087;DHT22;15392;48.912;8.380;2023-03-14T03:13:46;17.30;48.30
28087;DHT22;15392;48.912;8.380;2023-03-14T03:16:12;17.30;48.20
28087;DHT22;15392;48.912;8.380;2023-03-14T03:18:40;17.30;48.30
28087;DHT22;15392;48.912;8.380;2023-03-14T03:21:09;17.30;48.30
28087;DHT22;15392;48.912;8.380;2023-03-14T03:23:38;17.30;48.30
28087;DHT22;15392;48.912;8.380;2023-03-14T03:26:04;17.30;48.20
28087;DHT22;15392;48.912;8.380;2023-03-14T03:28:30;17.30;48.20
28087;DHT22;15392;48.912;8.380;2023-03-14T03:30:56;17.30;48.20
28087;DHT22;15392;48.912;8.380;2023-03-14T03:33:21;17.20;48.00
28087;DHT22;15392;48.912;8.380;2023-03-14T03:35:53;17.30;48.10
28087;DHT22;15392;48.912;8.380;2023-03-14T03:38:21;17.30;48.10
28087;DHT22;15392;48.912;8.380;2023-03-14T03:40:47;17.20;47.90
28087;DHT22;15392;48.912;8.380;2023-03-14T03:43:13;17.20;47.90
28087;DHT22;15392;48.912;8.380;2023-03-14T03:45:38;17.30;47.90
28087;DHT22;15392;48.912;8.380;2023-03-14T03:48:04;17.20;47.80
28087;DHT22;15392;48.912;8.380;2023-03-14T03:50:30;17.20;47.70
28087;DHT22;15392;48.912;8.380;2023-03-14T03:52:56;17.20;47.70
28087;DHT22;15392;48.912;8.380;2023-03-14T03:55:22;17.20;47.60
28087;DHT22;15392;48.912;8.380;2023-03-14T03:57:48;17.20;47.60
28087;DHT22;15392;48.912;8.380;2023-03-14T04:00:14;17.20;47.50
28087;DHT22;15392;48.912;8.380;2023-03-14T04:02:40;17.20;47.40
28087;DHT22;15392;48.912;8.380;2023-03-14T04:05:06;17.20;47.20
28087;DHT22;15392;48.912;8.380;2023-03-14T04:07:33;17.20;47.10
28087;DHT22;15392;48.912;8.380;2023-03-14T04:09:59;17.20;47.20
28087;DHT22;15392;48.912;8.380;2023-03-14T04:12:25;17.20;47.20
28087;DHT22;15392;48.912;8.380;2023-03-14T04:14:50;17.20;47.30
28087;DHT22;15392;48.912;8.380;2023-03-14T04:17:16;17.20;47.30
28087;DHT22;15392;48.912;8.380;2023-03-14T04:19:42;17.20;47.20
28087;DHT22;15392;48.912;8.380;2023-03-14T04:22:08;17.20;47.20
28087;DHT22;15392;48.912;8.380;2023-03-14T04:24:34;17.20;47.10
28087;DHT22;15392;48.912;8.380;2023-03-14T04:27:00;17.20;47.10
28087;DHT22;15392;48.912;8.380;2023-03-14T04:29:26;17.20;47.10
28087;DHT22;15392;48.912;8.380;2023-03-14T04:31:55;17.10;47.00
28087;DHT22;15392;48.912;8.380;2023-03-14T04:34:21;17.10;47.00
28087;DHT22;15392;48.912;8.380;2023-03-14T04:36:46;17.10;46.80
28087;DHT22;15392;48.912;8.380;2023-03-14T04:39:12;17.10;46.90
28087;DHT22;15392;48.912;8.380;2023-03-14T04:41:38;17.10;46.90
28087;DHT22;15392;48.912;8.380;2023-03-14T04:44:04;17.10;46.80
28087;DHT22;15392;48.912;8.380;2023-03-14T04:46:30;17.10;46.70
28087;DHT22;15392;48.912;8.380;2023-03-14T04:48:56;17.00;46.80
28087;DHT22;15392;48.912;8.380;2023-03-14T04:51:22;17.00;46.90
28087;DHT22;15392;48.912;8.380;2023-03-14T04:53:48;17.00;46.90
28087;DHT22;15392;48.912;8.380;2023-03-14T04:56:14;17.00;47.00
28087;DHT22;15392;48.912;8.380;2023-03-14T04:58:43;17.00;47.10
28087;DHT22;15392;48.912;8.380;2023-03-14T05:01:09;17.00;47.10
28087;DHT22;15392;48.912;8.380;2023-03-14T05:03:35;17.00;47.00
28087;DHT22;15392;48.912;8.380;2023-03-14T05:06:06;17.10;47.20
28087;DHT22;15392;48.912;8.380;2023-03-14T05:08:32;17.00;47.10
28087;DHT22;15392;48.912;8.380;2023-03-14T05:10:58;17.00;47.10
28087;DHT22;15392;48.912;8.380;2023-03-14T05:13:24;17.00;47.20
28087;DHT22;15392;48.912;8.380;2023-03-14T05:15:53;17.00;47.20
28087;DHT22;15392;48.912;8.380;2023-03-14T05:18:23;17.00;47.10
28087;DHT22;15392;48.912;8.380;2023-03-14T05:20:50;17.00;47.10
28087;DHT22;15392;48.912;8.380;2023-03-14T05:23:20;17.00;47.70
28087;DHT22;15392;48.912;8.380;2023-03-14T05:25:49;17.00;47.10
28087;DHT22;15392;48.912;8.380;2023-03-14T05:28:14;17.00;47.20
28087;DHT22;15392;48.912;8.380;2023-03-14T05:30:43;17.00;47.30
28087;DHT22;15392;48.912;8.380;2023-03-14T05:33:09;17.00;47.20
28087;DHT22;15392;48.912;8.380;2023-03-14T05:35:35;17.00;47.30
28087;DHT22;15392;48.912;8.380;2023-03-14T05:38:01;17.00;47.30
28087;DHT22;15392;48.912;8.380;2023-03-14T05:40:36;17.00;47.30
28087;DHT22;15392;48.912;8.380;2023-03-14T05:43:14;17.00;47.30
28087;DHT22;15392;48.912;8.380;2023-03-14T05:45:42;17.00;47.20
28087;DHT22;15392;48.912;8.380;2023-03-14T05:48:17;17.00;47.20
28087;DHT22;15392;48.912;8.380;2023-03-14T05:50:44;17.00;47.20
28087;DHT22;15392;48.912;8.380;2023-03-14T05:53:10;17.00;47.20
28087;DHT22;15392;48.912;8.380;2023-03-14T05:55:42;16.90;47.10
28087;DHT22;15392;48.912;8.380;2023-03-14T05:58:08;17.00;47.20
28087;DHT22;15392;48.912;8.380;2023-03-14T06:00:33;17.00;47.30
28087;DHT22;15392;48.912;8.380;2023-03-14T06:03:00;16.90;47.10
28087;DHT22;15392;48.912;8.380;2023-03-14T06:05:26;16.90;47.10
28087;DHT22;15392;48.912;8.380;2023-03-14T06:07:53;16.90;47.10
28087;DHT22;15392;48.912;8.380;2023-03-14T06:10:19;16.90;47.10
28087;DHT22;15392;48.912;8.380;2023-03-14T06:12:45;16.90;47.10
28087;DHT22;15392;48.912;8.380;2023-03-14T06:15:12;16.90;47.10
28087;DHT22;15392;48.912;8.380;2023-03-14T06:17:43;16.90;47.00
28087;DHT22;15392;48.912;8.380;2023-03-14T06:20:10;16.80;47.00
28087;DHT22;15392;48.912;8.380;2023-03-14T06:22:43;16.90;47.20
28087;DHT22;15392;48.912;8.380;2023-03-14T06:25:09;16.80;47.50
28087;DHT22;15392;48.912;8.380;2023-03-14T06:27:35;16.80;47.10
28087;DHT22;15392;48.912;8.380;2023-03-14T06:30:03;16.80;47.10
28087;DHT22;15392;48.912;8.380;2023-03-14T06:32:31;16.80;47.20
28087;DHT22;15392;48.912;8.380;2023-03-14T06:34:57;16.80;47.20
28087;DHT22;15392;48.912;8.380;2023-03-14T06:37:27;16.80;47.20
28087;DHT22;15392;48.912;8.380;2023-03-14T06:39:59;16.80;47.20
28087;DHT22;15392;48.912;8.380;2023-03-14T06:42:25;16.80;47.80
28087;DHT22;15392;48.912;8.380;2023-03-14T06:44:54;16.80;47.90
28087;DHT22;15392;48.912;8.380;2023-03-14T06:47:22;16.80;48.00
28087;DHT22;15392;48.912;8.380;2023-03-14T06:49:52;16.80;47.50
28087;DHT22;15392;48.912;8.380;2023-03-14T06:52:20;16.80;47.50
28087;DHT22;15392;48.912;8.380;2023-03-14T06:54:47;16.80;47.50
28087;DHT22;15392;48.912;8.380;2023-03-14T06:57:13;16.90;47.50
28087;DHT22;15392;48.912;8.380;2023-03-14T06:59:39;16.80;48.10
28087;DHT22;15392;48.912;8.380;2023-03-14T07:02:10;16.80;47.50
28087;DHT22;15392;48.912;8.380;2023-03-14T07:04:37;16.90;47.50
28087;DHT22;15392;48.912;8.380;2023-03-14T07:07:03;16.80;47.50
28087;DHT22;15392;48.912;8.380;2023-03-14T07:09:32;16.90;47.60
28087;DHT22;15392;48.912;8.380;2023-03-14T07:11:58;16.90;47.60
28087;DHT22;15392;48.912;8.380;2023-03-14T07:14:24;16.90;47.60
28087;DHT22;15392;48.912;8.380;2023-03-14T07:16:50;16.90;47.60
28087;DHT22;15392;48.912;8.380;2023-03-14T07:19:16;16.90;47.60
28087;DHT22;15392;48.912;8.380;2023-03-14T07:21:42;16.90;47.60
28087;DHT22;15392;48.912;8.380;2023-03-14T07:24:08;17.00;47.80
28087;DHT22;15392;48.912;8.380;2023-03-14T07:26:33;17.10;48.00
28087;DHT22;15392;48.912;8.380;2023-03-14T07:28:59;17.20;48.00
28087;DHT22;15392;48.912;8.380;2023-03-14T07:31:25;17.30;47.90
28087;DHT22;15392;48.912;8.380;2023-03-14T07:33:51;17.40;47.80
28087;DHT22;15392;48.912;8.380;2023-03-14T07:36:17;17.40;47.60
28087;DHT22;15392;48.912;8.380;2023-03-14T07:38:43;17.50;47.50
28087;DHT22;15392;48.912;8.380;2023-03-14T07:41:09;17.50;47.40
28087;DHT22;15392;48.912;8.380;2023-03-14T07:43:35;17.50;47.40
28087;DHT22;15392;48.912;8.380;2023-03-14T07:46:01;17.60;47.30
28087;DHT22;15392;48.912;8.380;2023-03-14T07:48:27;17.60;47.30
28087;DHT22;15392;48.912;8.380;2023-03-14T07:50:53;17.60;47.30
28087;DHT22;15392;48.912;8.380;2023-03-14T07:53:21;17.70;47.40
28087;DHT22;15392;48.912;8.380;2023-03-14T07:55:47;17.70;47.50
28087;DHT22;15392;48.912;8.380;2023-03-14T07:58:14;17.70;47.40
28087;DHT22;15392;48.912;8.380;2023-03-14T08:00:40;17.70;47.40
28087;DHT22;15392;48.912;8.380;2023-03-14T08:03:06;17.70;47.30
28087;DHT22;15392;48.912;8.380;2023-03-14T08:05:35;17.80;47.10
28087;DHT22;15392;48.912;8.380;2023-03-14T08:08:02;17.80;47.00
28087;DHT22;15392;48.912;8.380;2023-03-14T08:10:28;17.80;47.10
28087;DHT22;15392;48.912;8.380;2023-03-14T08:12:55;17.80;47.10
28087;DHT22;15392;48.912;8.380;2023-03-14T08:15:23;17.80;47.00
28087;DHT22;15392;48.912;8.380;2023-03-14T08:17:49;17.80;47.00
28087;DHT22;15392;48.912;8.380;2023-03-14T08:20:24;17.80;47.00
28087;DHT22;15392;48.912;8.380;2023-03-14T08:22:51;17.80;46.90
28087;DHT22;15392;48.912;8.380;2023-03-14T08:25:18;17.70;47.00
28087;DHT22;15392;48.912;8.380;2023-03-14T08:27:44;17.80;47.10
28087;DHT22;15392;48.912;8.380;2023-03-14T08:30:16;17.70;47.10
28087;DHT22;15392;48.912;8.380;2023-03-14T08:32:43;17.70;47.20
28087;DHT22;15392;48.912;8.380;2023-03-14T08:35:09;17.70;47.20
28087;DHT22;15392;48.912;8.380;2023-03-14T08:37:36;17.70;47.30
28087;DHT22;15392;48.912;8.380;2023-03-14T08:40:04;17.60;47.30
28087;DHT22;15392;48.912;8.380;2023-03-14T08:42:36;17.60;47.30
28087;DHT22;15392;48.912;8.380;2023-03-14T08:45:03;17.60;47.30
28087;DHT22;15392;48.912;8.380;2023-03-14T08:47:29;17.60;47.20
28087;DHT22;15392;48.912;8.380;2023-03-14T08:49:55;17.50;47.20
28087;DHT22;15392;48.912;8.380;2023-03-14T08:52:21;17.50;47.30
28087;DHT22;15392;48.912;8.380;2023-03-14T08:54:47;17.50;47.30
28087;DHT22;15392;48.912;8.380;2023-03-14T08:57:13;17.50;47.30
28087;DHT22;15392;48.912;8.380;2023-03-14T08:59:39;17.50;47.30
28087;DHT22;15392;48.912;8.380;2023-03-14T09:02:05;17.50;47.40
28087;DHT22;15392;48.912;8.380;2023-03-14T09:04:40;17.50;47.40
28087;DHT22;15392;48.912;8.380;2023-03-14T09:07:06;17.50;47.30
28087;DHT22;15392;48.912;8.380;2023-03-14T09:09:35;17.40;47.20
28087;DHT22;15392;48.912;8.380;2023-03-14T09:12:00;17.40;47.30
28087;DHT22;15392;48.912;8.380;2023-03-14T09:14:26;17.50;47.40
28087;DHT22;15392;48.912;8.380;2023-03-14T09:16:52;17.50;47.40
28087;DHT22;15392;48.912;8.380;2023-03-14T09:19:21;17.40;47.30
28087;DHT22;15392;48.912;8.380;2023-03-14T09:21:47;17.40;47.40
28087;DHT22;15392;48.912;8.380;2023-03-14T09:24:13;17.40;47.50
28087;DHT22;15392;48.912;8.380;2023-03-14T09:26:39;17.50;48.10
28087;DHT22;15392;48.912;8.380;2023-03-14T09:29:04;17.40;47.40
28087;DHT22;15392;48.912;8.380;2023-03-14T09:31:30;17.50;47.40
28087;DHT22;15392;48.912;8.380;2023-03-14T09:33:56;17.50;47.50
28087;DHT22;15392;48.912;8.380;2023-03-14T09:36:22;17.50;47.50
28087;DHT22;15392;48.912;8.380;2023-03-14T09:38:48;17.50;47.50
28087;DHT22;15392;48.912;8.380;2023-03-14T09:41:39;17.50;47.40
28087;DHT22;15392;48.912;8.380;2023-03-14T09:44:29;17.60;47.30
28087;DHT22;15392;48.912;8.380;2023-03-14T09:47:03;17.50;47.30
28087;DHT22;15392;48.912;8.380;2023-03-14T09:49:37;17.60;47.50
28087;DHT22;15392;48.912;8.380;2023-03-14T09:52:13;17.60;47.60
28087;DHT22;15392;48.912;8.380;2023-03-14T09:57:23;17.60;48.00
28087;DHT22;15392;48.912;8.380;2023-03-14T09:59:51;17.60;48.30
28087;DHT22;15392;48.912;8.380;2023-03-14T10:04:49;17.60;48.40
28087;DHT22;15392;48.912;8.380;2023-03-14T10:07:19;17.60;48.70
28087;DHT22;15392;48.912;8.380;2023-03-14T10:09:49;17.60;48.90
28087;DHT22;15392;48.912;8.380;2023-03-14T10:12:17;17.60;48.80
28087;DHT22;15392;48.912;8.380;2023-03-14T10:14:49;17.60;48.90
28087;DHT22;15392;48.912;8.380;2023-03-14T10:17:18;17.60;49.20
28087;DHT22;15392;48.912;8.380;2023-03-14T10:19:56;17.50;49.10
28087;DHT22;15392;48.912;8.380;2023-03-14T10:22:26;17.50;49.30
28087;DHT22;15392;48.912;8.380;2023-03-14T10:25:00;17.50;49.20
28087;DHT22;15392;48.912;8.380;2023-03-14T10:27:34;17.40;49.30
28087;DHT22;15392;48.912;8.380;2023-03-14T10:30:27;17.40;49.40
28087;DHT22;15392;48.912;8.380;2023-03-14T10:32:53;17.40;49.70
28087;DHT22;15392;48.912;8.380;2023-03-14T10:35:21;17.40;49.50
28087;DHT22;15392;48.912;8.380;2023-03-14T10:40:24;17.30;49.40
28087;DHT22;15392;48.912;8.380;2023-03-14T10:42:53;17.30;49.40
28087;DHT22;15392;48.912;8.380;2023-03-14T10:45:41;17.30;50.10
28087;DHT22;15392;48.912;8.380;2023-03-14T10:51:02;17.30;49.80
28087;DHT22;15392;48.912;8.380;2023-03-14T10:53:42;17.20;50.70
28087;DHT22;15392;48.912;8.380;2023-03-14T10:56:17;17.20;49.80
28087;DHT22;15392;48.912;8.380;2023-03-14T10:58:47;17.20;49.80
28087;DHT22;15392;48.912;8.380;2023-03-14T11:01:40;17.20;50.00
28087;DHT22;15392;48.912;8.380;2023-03-14T11:16:09;17.00;50.50
28087;DHT22;15392;48.912;8.380;2023-03-14T11:19:00;16.90;50.60
28087;DHT22;15392;48.912;8.380;2023-03-14T11:30:00;16.70;50.70
28087;DHT22;15392;48.912;8.380;2023-03-14T11:32:45;16.60;51.00
28087;DHT22;15392;48.912;8.380;2023-03-14T11:35:37;16.60;50.70
28087;DHT22;15392;48.912;8.380;2023-03-14T11:38:33;16.60;51.40
28087;DHT22;15392;48.912;8.380;2023-03-14T11:41:00;16.50;51.30
28087;DHT22;15392;48.912;8.380;2023-03-14T11:43:33;16.40;50.70
28087;DHT22;15392;48.912;8.380;2023-03-14T11:49:13;16.30;50.70
28087;DHT22;15392;48.912;8.380;2023-03-14T11:51:52;16.30;50.10
28087;DHT22;15392;48.912;8.380;2023-03-14T11:54:44;16.20;49.40
28087;DHT22;15392;48.912;8.380;2023-03-14T11:57:19;16.20;49.20
28087;DHT22;15392;48.912;8.380;2023-03-14T11:59:58;16.20;49.00
28087;DHT22;15392;48.912;8.380;2023-03-14T12:05:53;16.10;48.80
28087;DHT22;15392;48.912;8.380;2023-03-14T12:11:30;16.00;48.30
28087;DHT22;15392;48.912;8.380;2023-03-14T12:13:58;15.90;48.10
28087;DHT22;15392;48.912;8.380;2023-03-14T12:18:51;15.80;48.00
28087;DHT22;15392;48.912;8.380;2023-03-14T12:21:18;15.80;48.10
28087;DHT22;15392;48.912;8.380;2023-03-14T12:23:54;15.70;48.00
28087;DHT22;15392;48.912;8.380;2023-03-14T12:26:50;15.70;48.20
28087;DHT22;15392;48.912;8.380;2023-03-14T12:29:24;15.80;48.00
28087;DHT22;15392;48.912;8.380;2023-03-14T12:34:28;15.80;47.30
28087;DHT22;15392;48.912;8.380;2023-03-14T12:37:34;15.70;47.10
28087;DHT22;15392;48.912;8.380;2023-03-14T12:45:35;15.80;46.00
28087;DHT22;15392;48.912;8.380;2023-03-14T12:51:02;15.80;44.70
28087;DHT22;15392;48.912;8.380;2023-03-14T12:56:21;15.80;44.30
28087;DHT22;15392;48.912;8.380;2023-03-14T12:59:05;15.80;44.80
28087;DHT22;15392;48.912;8.380;2023-03-14T13:05:02;15.80;44.00
28087;DHT22;15392;48.912;8.380;2023-03-14T13:13:15;15.90;43.50
28087;DHT22;15392;48.912;8.380;2023-03-14T13:15:46;15.90;43.90
28087;DHT22;15392;48.912;8.380;2023-03-14T13:18:26;16.00;43.80
28087;DHT22;15392;48.912;8.380;2023-03-14T13:21:05;16.00;43.80
28087;DHT22;15392;48.912;8.380;2023-03-14T13:23:57;16.00;43.70
28087;DHT22;15392;48.912;8.380;2023-03-14T13:26:41;16.00;42.60
28087;DHT22;15392;48.912;8.380;2023-03-14T13:29:30;16.00;43.10
28087;DHT22;15392;48.912;8.380;2023-03-14T13:32:10;16.00;42.80
28087;DHT22;15392;48.912;8.380;2023-03-14T13:34:42;16.00;42.40
28087;DHT22;15392;48.912;8.380;2023-03-14T13:37:21;16.00;42.60
28087;DHT22;15392;48.912;8.380;2023-03-14T13:39:50;16.00;41.50
28087;DHT22;15392;48.912;8.380;2023-03-14T13:42:27;16.00;42.40
28087;DHT22;15392;48.912;8.380;2023-03-14T13:44:55;15.90;42.00
28087;DHT22;15392;48.912;8.380;2023-03-14T13:47:23;15.90;42.40
28087;DHT22;15392;48.912;8.380;2023-03-14T13:49:50;15.90;41.90
28087;DHT22;15392;48.912;8.380;2023-03-14T13:52:31;15.90;42.30
28087;DHT22;15392;48.912;8.380;2023-03-14T13:55:01;15.80;41.80
28087;DHT22;15392;48.912;8.380;2023-03-14T13:57:47;15.90;42.10
28087;DHT22;15392;48.912;8.380;2023-03-14T14:00:27;15.90;42.40
28087;DHT22;15392;48.912;8.380;2023-03-14T14:02:58;15.90;42.40
28087;DHT22;15392;48.912;8.380;2023-03-14T14:05:28;15.80;42.20
28087;DHT22;15392;48.912;8.380;2023-03-14T14:07:56;15.80;42.30
28087;DHT22;15392;48.912;8.380;2023-03-14T14:10:22;15.80;42.30
28087;DHT22;15392;48.912;8.380;2023-03-14T14:13:01;15.80;42.60
28087;DHT22;15392;48.912;8.380;2023-03-14T14:15:33;15.80;41.90
28087;DHT22;15392;48.912;8.380;2023-03-14T14:18:04;15.80;42.10
28087;DHT22;15392;48.912;8.380;2023-03-14T14:20:36;15.80;42.60
28087;DHT22;15392;48.912;8.380;2023-03-14T14:23:15;15.80;42.30
28087;DHT22;15392;48.912;8.380;2023-03-14T14:25:45;15.80;42.00
28087;DHT22;15392;48.912;8.380;2023-03-14T14:28:31;15.80;41.50
28087;DHT22;15392;48.912;8.380;2023-03-14T14:34:02;15.80;41.90
28087;DHT22;15392;48.912;8.380;2023-03-14T14:36:46;15.80;41.80
28087;DHT22;15392;48.912;8.380;2023-03-14T14:39:21;15.80;41.30
28087;DHT22;15392;48.912;8.380;2023-03-14T14:41:50;15.80;42.00
28087;DHT22;15392;48.912;8.380;2023-03-14T14:44:35;15.80;42.40
28087;DHT22;15392;48.912;8.380;2023-03-14T14:47:03;15.80;41.20
28087;DHT22;15392;48.912;8.380;2023-03-14T14:49:31;15.80;41.80
28087;DHT22;15392;48.912;8.380;2023-03-14T14:54:39;15.80;41.80
28087;DHT22;15392;48.912;8.380;2023-03-14T14:57:22;15.90;42.10
28087;DHT22;15392;48.912;8.380;2023-03-14T14:59:51;15.90;42.00
28087;DHT22;15392;48.912;8.380;2023-03-14T15:02:45;15.90;42.40
28087;DHT22;15392;48.912;8.380;2023-03-14T15:07:44;15.90;42.30
28087;DHT22;15392;48.912;8.380;2023-03-14T15:10:15;15.90;42.50
28087;DHT22;15392;48.912;8.380;2023-03-14T15:12:42;15.90;42.30
28087;DHT22;15392;48.912;8.380;2023-03-14T15:15:12;15.90;42.60
28087;DHT22;15392;48.912;8.380;2023-03-14T15:17:38;16.00;42.50
28087;DHT22;15392;48.912;8.380;2023-03-14T15:20:06;15.90;42.50
28087;DHT22;15392;48.912;8.380;2023-03-14T15:22:36;16.00;42.60
28087;DHT22;15392;48.912;8.380;2023-03-14T15:25:02;16.00;42.80
28087;DHT22;15392;48.912;8.380;2023-03-14T15:27:31;16.00;42.70
28087;DHT22;15392;48.912;8.380;2023-03-14T15:29:58;16.00;42.70
28087;DHT22;15392;48.912;8.380;2023-03-14T15:32:24;16.00;42.90
28087;DHT22;15392;48.912;8.380;2023-03-14T15:34:54;16.00;43.00
28087;DHT22;15392;48.912;8.380;2023-03-14T15:37:20;16.00;43.00
28087;DHT22;15392;48.912;8.380;2023-03-14T15:39:47;16.00;42.90
28087;DHT22;15392;48.912;8.380;2023-03-14T15:42:13;16.00;42.60
28087;DHT22;15392;48.912;8.380;2023-03-14T15:44:39;16.00;42.90
28087;DHT22;15392;48.912;8.380;2023-03-14T15:47:05;16.00;42.50
28087;DHT22;15392;48.912;8.380;2023-03-14T15:49:31;16.00;43.40
28087;DHT22;15392;48.912;8.380;2023-03-14T15:51:57;16.00;42.80
28087;DHT22;15392;48.912;8.380;2023-03-14T15:54:24;16.00;42.80
28087;DHT22;15392;48.912;8.380;2023-03-14T15:56:54;16.00;42.80
28087;DHT22;15392;48.912;8.380;2023-03-14T15:59:21;16.00;42.90
28087;DHT22;15392;48.912;8.380;2023-03-14T16:01:47;16.00;42.90
28087;DHT22;15392;48.912;8.380;2023-03-14T16:04:17;16.00;42.90
28087;DHT22;15392;48.912;8.380;2023-03-14T16:06:44;16.00;42.90
28087;DHT22;15392;48.912;8.380;2023-03-14T16:09:13;16.00;43.10
28087;DHT22;15392;48.912;8.380;2023-03-14T16:11:39;16.00;43.30
28087;DHT22;15392;48.912;8.380;2023-03-14T16:14:05;16.00;43.60
28087;DHT22;15392;48.912;8.380;2023-03-14T16:16:32;15.90;43.90
28087;DHT22;15392;48.912;8.380;2023-03-14T16:18:58;15.90;44.00
28087;DHT22;15392;48.912;8.380;2023-03-14T16:21:24;15.90;44.20
28087;DHT22;15392;48.912;8.380;2023-03-14T16:23:52;15.90;44.40
28087;DHT22;15392;48.912;8.380;2023-03-14T16:26:21;15.90;44.50
28087;DHT22;15392;48.912;8.380;2023-03-14T16:28:47;15.80;44.50
28087;DHT22;15392;48.912;8.380;2023-03-14T16:31:15;15.80;44.50
28087;DHT22;15392;48.912;8.380;2023-03-14T16:33:43;15.80;44.50
28087;DHT22;15392;48.912;8.380;2023-03-14T16:36:11;15.70;44.30
28087;DHT22;15392;48.912;8.380;2023-03-14T16:38:39;15.60;44.10
28087;DHT22;15392;48.912;8.380;2023-03-14T16:41:13;15.60;44.20
28087;DHT22;15392;48.912;8.380;2023-03-14T16:43:43;15.50;44.40
28087;DHT22;15392;48.912;8.380;2023-03-14T16:46:14;15.40;44.70
28087;DHT22;15392;48.912;8.380;2023-03-14T16:48:41;15.40;45.00
28087;DHT22;15392;48.912;8.380;2023-03-14T16:51:07;15.30;45.00
28087;DHT22;15392;48.912;8.380;2023-03-14T16:53:34;15.20;45.10
28087;DHT22;15392;48.912;8.380;2023-03-14T16:56:03;15.10;45.10
28087;DHT22;15392;48.912;8.380;2023-03-14T16:58:32;15.10;45.30
28087;DHT22;15392;48.912;8.380;2023-03-14T17:01:10;15.00;45.40
28087;DHT22;15392;48.912;8.380;2023-03-14T17:03:48;15.00;45.50